Time;durP1;ratioP1;P1;durP2;ratioP2;P2;SDS_P1;SDS_P2;PMS_P1;PMS_P2;Temp;Humidity;BMP_temperature;BMP_pressure;BME280_temperature;BME280_humidity;BME280_pressure;Samples;Min_cycle;Max_cycle;Signal;HPM_P1;HPM_P2
2022/09/20 00:01:31;;;;;;;11.60;4.63;;;;;;;24.51;54.13;100372.19;6131281;23;20056;-75
2022/09/20 00:04:01;;;;;;;7.95;4.65;;;;;;;24.57;54.26;100382.09;6155702;23;20025;-74
2022/09/20 00:06:30;;;;;;;10.70;4.90;;;;;;;24.20;54.25;100328.38;6155026;23;20033;-75
2022/09/20 00:08:58;;;;;;;13.63;5.80;;;;;;;24.51;54.21;100383.59;6155620;23;20030;-75
2022/09/20 00:11:28;;;;;;;8.60;5.20;;;;;;;24.51;54.32;100386.47;6153336;23;20457;-75
2022/09/20 00:13:57;;;;;;;8.63;5.30;;;;;;;24.48;54.25;100384.38;6154404;23;20022;-76
2022/09/20 00:16:33;;;;;;;8.75;4.60;;;;;;;24.17;54.48;100343.41;6153511;23;20048;-75
2022/09/20 00:19:02;;;;;;;16.70;6.10;;;;;;;24.31;54.56;100354.28;6126597;23;20083;-76
2022/09/20 00:21:31;;;;;;;15.10;5.78;;;;;;;24.26;54.72;100346.00;6154706;23;20021;-76
2022/09/20 00:23:59;;;;;;;8.45;4.75;;;;;;;24.38;54.60;100371.53;6154588;23;20022;-77
2022/09/20 00:26:27;;;;;;;13.10;5.45;;;;;;;24.32;54.38;100368.16;6151598;23;20033;-77
2022/09/20 00:28:54;;;;;;;13.68;4.88;;;;;;;24.33;54.42;100366.13;6153845;23;20021;-76
2022/09/20 00:31:21;;;;;;;10.77;5.57;;;;;;;24.31;54.64;100366.53;6153593;23;20022;-76
2022/09/20 00:36:33;;;;;;;11.43;4.97;;;;;;;24.34;54.76;100362.91;6154173;23;20057;-77
2022/09/20 00:39:02;;;;;;;13.93;5.60;;;;;;;24.41;55.02;100369.97;6152701;23;20404;-76
2022/09/20 00:41:30;;;;;;;11.23;5.28;;;;;;;24.43;54.79;100361.84;6128570;23;20017;-76
2022/09/20 00:43:58;;;;;;;8.07;4.93;;;;;;;24.35;54.98;100361.69;6154077;23;20021;-75
2022/09/20 00:46:42;;;;;;;15.00;5.70;;;;;;;24.29;54.84;100346.09;6128753;23;20057;-75
2022/09/20 00:49:15;;;;;;;9.70;5.53;;;;;;;24.41;54.86;100370.81;6129830;23;20021;-75
2022/09/20 00:51:45;;;;;;;11.90;5.40;;;;;;;24.22;55.16;100342.28;6154338;23;20507;-75
2022/09/20 00:54:15;;;;;;;9.57;5.05;;;;;;;24.32;55.30;100371.00;6154680;23;20022;-75
2022/09/20 00:56:47;;;;;;;12.10;5.40;;;;;;;24.29;55.38;100366.06;6154517;23;20029;-75
2022/09/20 00:59:18;;;;;;;11.57;5.85;;;;;;;24.20;55.48;100339.78;6153145;23;20029;-75
2022/09/20 01:01:51;;;;;;;9.45;4.85;;;;;;;24.20;55.54;100331.22;6151891;23;20017;-75
2022/09/20 01:04:21;;;;;;;10.45;5.05;;;;;;;24.29;55.17;100334.66;6154224;23;20025;-75
2022/09/20 01:06:50;;;;;;;9.82;5.10;;;;;;;24.40;55.19;100352.03;6152993;23;20032;-74
2022/09/20 01:09:17;;;;;;;8.27;5.00;;;;;;;24.10;55.25;100317.59;6153195;23;20349;-75
2022/09/20 01:11:45;;;;;;;10.52;5.25;;;;;;;24.29;55.34;100334.66;6153585;23;20018;-75
2022/09/20 01:14:14;;;;;;;7.03;4.85;;;;;;;24.36;55.43;100346.22;6153358;23;20026;-75
2022/09/20 01:16:41;;;;;;;8.73;4.97;;;;;;;24.27;55.40;100354.22;6152502;23;20473;-74
2022/09/20 01:19:26;;;;;;;9.32;5.25;;;;;;;24.19;55.14;100325.91;6128395;23;20026;-75
2022/09/20 01:21:53;;;;;;;7.70;5.40;;;;;;;24.33;55.32;100352.69;6128161;23;20318;-76
2022/09/20 01:24:37;;;;;;;8.77;5.30;;;;;;;24.28;55.17;100333.03;6153298;23;20092;-75
2022/09/20 01:27:32;;;;;;;12.98;5.22;;;;;;;24.37;55.12;100347.03;6128305;23;20037;-75
2022/09/20 01:29:59;;;;;;;12.95;5.75;;;;;;;24.35;55.49;100344.56;6153595;23;20033;-75
2022/09/20 01:32:51;;;;;;;10.35;5.60;;;;;;;24.08;55.27;100300.84;6128064;23;20021;-75
2022/09/20 01:35:20;;;;;;;7.88;5.07;;;;;;;24.33;55.07;100335.56;6127366;23;20025;-75
2022/09/20 01:38:21;;;;;;;9.88;4.75;;;;;;;24.28;54.78;100340.78;6153981;23;20025;-75
2022/09/20 01:40:49;;;;;;;12.90;5.53;;;;;;;24.30;55.27;100346.91;6125165;23;20029;-75
2022/09/20 01:43:28;;;;;;;9.23;5.30;;;;;;;24.27;55.03;100331.38;6151965;23;20029;-75
2022/09/20 01:46:01;;;;;;;9.27;4.80;;;;;;;24.12;55.14;100313.16;6127696;23;20356;-77
2022/09/20 01:48:31;;;;;;;10.10;4.97;;;;;;;24.16;55.71;100329.53;6152690;23;20088;-76
2022/09/20 01:51:16;;;;;;;;;;;;;;;23.96;56.22;100337.28;6127111;23;20326;-79
2022/09/20 01:54:22;;;;;;;7.85;4.88;;;;;;;23.97;55.64;100334.06;6127462;23;19917;-78
2022/09/20 01:57:22;;;;;;;7.63;4.85;;;;;;;23.89;55.91;100335.91;6153399;23;20029;-76
2022/09/20 01:59:55;;;;;;;10.75;5.38;;;;;;;23.82;56.66;100327.22;6154258;23;20029;-75
2022/09/20 02:02:47;;;;;;;9.68;4.70;;;;;;;23.61;57.62;100327.56;6128176;23;20018;-76
2022/09/20 02:05:46;;;;;;;7.38;4.55;;;;;;;23.44;57.90;100338.59;6127755;23;20028;-75
2022/09/20 02:08:28;;;;;;;7.97;3.95;;;;;;;23.30;58.89;100330.56;6153584;23;20024;-75
2022/09/20 02:11:11;;;;;;;12.40;4.18;;;;;;;23.24;59.48;100324.31;6153168;23;20488;-74
2022/09/20 02:13:38;;;;;;;8.10;4.32;;;;;;;23.28;59.12;100335.78;6154988;23;20199;-75
2022/09/20 02:16:23;;;;;;;10.90;5.22;;;;;;;23.29;59.46;100338.28;6152363;23;20022;-75
2022/09/20 02:19:15;;;;;;;9.38;5.28;;;;;;;23.38;58.62;100324.66;6154546;23;20026;-75
2022/09/20 02:22:20;;;;;;;9.75;4.93;;;;;;;23.49;58.39;100313.47;6154537;23;20021;-76
2022/09/20 02:25:00;;;;;;;12.27;5.40;;;;;;;23.68;57.63;100335.47;6084846;23;20348;-76
2022/09/20 02:27:33;;;;;;;9.20;5.10;;;;;;;23.74;57.83;100327.47;6154286;23;20041;-77
2022/09/20 02:30:05;;;;;;;11.52;6.35;;;;;;;23.77;57.65;100336.09;6156527;23;20032;-76
2022/09/20 02:32:50;;;;;;;9.65;5.78;;;;;;;23.80;57.74;100335.34;6156179;23;20024;-74
2022/09/20 02:35:29;;;;;;;10.43;5.28;;;;;;;23.82;57.50;100332.09;6155537;23;20025;-75
2022/09/20 02:38:10;;;;;;;12.37;5.30;;;;;;;23.68;57.34;100314.72;6155059;23;20028;-75
2022/09/20 02:40:55;;;;;;;11.40;4.95;;;;;;;23.78;57.41;100337.72;6155348;23;20029;-76
2022/09/20 02:43:47;;;;;;;11.65;4.88;;;;;;;23.65;57.91;100331.31;6155894;23;20021;-76
2022/09/20 02:46:37;;;;;;;9.05;5.32;;;;;;;23.65;57.92;100327.66;6153765;23;20032;-74
2022/09/20 02:49:10;;;;;;;13.20;5.13;;;;;;;23.64;57.77;100337.41;6143744;23;20032;-77
2022/09/20 02:51:45;;;;;;;10.88;4.75;;;;;;;23.44;58.15;100324.34;6154885;23;20096;-74
2022/09/20 02:54:18;;;;;;;9.93;8.93;;;;;;;23.54;57.71;100332.31;6154657;23;20021;-75
2022/09/20 02:57:01;;;;;;;14.32;11.88;;;;;;;23.35;58.28;100322.53;6153779;23;20061;-75
2022/09/20 02:59:39;;;;;;;13.93;12.57;;;;;;;23.50;57.98;100354.22;6130668;23;20032;-79
2022/09/20 03:02:11;;;;;;;12.88;11.77;;;;;;;23.55;58.02;100336.78;6155546;23;20018;-78
2022/09/20 03:05:10;;;;;;;16.42;14.93;;;;;;;23.33;58.55;100327.78;6155593;23;20029;-79
2022/09/20 03:07:45;;;;;;;12.38;11.10;;;;;;;23.30;58.99;100327.69;6154814;23;20025;-78
2022/09/20 03:10:32;;;;;;;15.13;11.55;;;;;;;23.06;59.73;100332.44;6155661;23;20044;-78
2022/09/20 03:13:17;;;;;;;13.38;11.90;;;;;;;22.97;59.95;100342.38;6154865;23;20025;-78
2022/09/20 03:15:47;;;;;;;15.23;12.63;;;;;;;22.88;60.29;100340.53;6153474;23;20025;-78
2022/09/20 03:18:37;;;;;;;15.45;12.77;;;;;;;22.76;60.66;100332.09;6154138;23;20028;-78
2022/09/20 03:21:25;;;;;;;17.38;13.15;;;;;;;22.89;60.41;100335.66;6154417;23;20025;-76
2022/09/20 03:24:20;;;;;;;14.15;12.73;;;;;;;23.08;59.19;100337.78;6128242;23;20022;-78
2022/09/20 03:26:55;;;;;;;14.02;12.55;;;;;;;23.16;58.90;100329.03;6154255;23;20029;-77
2022/09/20 03:29:50;;;;;;;14.50;13.05;;;;;;;23.17;58.74;100329.84;6154730;23;20026;-75
2022/09/20 03:32:47;;;;;;;16.48;13.82;;;;;;;23.11;58.93;100331.31;6127601;23;20024;-77
2022/09/20 03:35:43;;;;;;;15.15;13.57;;;;;;;23.12;59.12;100321.59;6127821;23;20025;-77
2022/09/20 03:38:46;;;;;;;16.33;13.65;;;;;;;23.12;58.75;100321.59;6110383;23;20342;-76
2022/09/20 03:41:24;;;;;;;19.85;13.50;;;;;;;23.17;58.67;100321.28;6154091;23;20036;-75
2022/09/20 03:43:51;;;;;;;15.03;13.53;;;;;;;23.20;58.87;100323.41;6155435;23;20030;-77
2022/09/20 03:46:21;;;;;;;15.68;14.27;;;;;;;23.16;59.04;100311.94;6126058;23;20247;-76
2022/09/20 03:49:16;;;;;;;14.40;13.00;;;;;;;23.11;59.13;100319.94;6154899;23;20021;-76
2022/09/20 03:52:13;;;;;;;18.38;13.73;;;;;;;23.12;59.02;100315.91;6153835;23;20022;-74
2022/09/20 03:55:01;;;;;;;17.63;13.63;;;;;;;23.15;58.76;100323.72;6154469;23;20448;-75
2022/09/20 03:57:38;;;;;;;16.20;14.43;;;;;;;23.14;58.93;100310.63;6155443;23;20040;-75
2022/09/20 04:00:10;;;;;;;16.05;14.38;;;;;;;23.31;58.97;100320.78;6153206;23;20022;-75
2022/09/20 04:02:50;;;;;;;14.63;13.15;;;;;;;23.34;58.40;100322.91;6128567;23;20018;-77
2022/09/20 04:05:25;;;;;;;14.85;12.27;;;;;;;23.23;58.41;100322.66;6128157;23;20021;-78
2022/09/20 04:07:58;;;;;;;14.80;13.65;;;;;;;23.16;58.47;100329.03;6155249;23;20021;-76
2022/09/20 04:11:07;;;;;;;16.45;12.85;;;;;;;23.06;58.63;100320.22;6155158;23;20022;-76
2022/09/20 04:13:35;;;;;;;14.68;13.30;;;;;;;23.10;58.99;100326.81;6155078;23;20348;-76
2022/09/20 04:16:39;;;;;;;14.25;12.98;;;;;;;23.07;58.54;100319.84;6154675;23;20022;-76
2022/09/20 04:19:25;;;;;;;19.60;13.98;;;;;;;23.04;58.55;100316.91;6154949;23;20349;-76
2022/09/20 04:21:59;;;;;;;18.98;14.30;;;;;;;23.15;59.31;100320.88;6154132;23;20527;-76
2022/09/20 04:24:29;;;;;;;14.27;12.82;;;;;;;23.17;58.83;100318.44;6153545;23;20025;-77
2022/09/20 04:27:19;;;;;;;14.68;13.23;;;;;;;23.17;58.98;100327.00;6154737;23;20082;-77
2022/09/20 04:29:56;;;;;;;18.85;12.65;;;;;;;22.95;59.11;100291.50;6114142;23;20021;-79
2022/09/20 04:32:47;;;;;;;16.90;13.45;;;;;;;23.14;59.32;100308.63;6154068;23;20022;-79
2022/09/20 04:38:13;;;;;;;14.02;12.68;;;;;;;23.13;58.75;100297.59;6153464;23;20022;-73
2022/09/20 04:41:06;;;;;;;14.85;13.32;;;;;;;23.24;58.70;100310.06;6127714;23;20456;-74
2022/09/20 04:43:49;;;;;;;12.88;11.75;;;;;;;23.29;59.08;100320.34;6153666;23;20025;-73
2022/09/20 04:46:56;;;;;;;14.27;12.85;;;;;;;23.00;59.53;100298.91;6152989;23;20025;-76
2022/09/20 04:49:38;;;;;;;15.07;12.18;;;;;;;22.99;59.92;100311.53;6154300;23;20026;-75
2022/09/20 04:52:23;;;;;;;13.77;12.55;;;;;;;22.97;59.97;100326.13;6151937;23;20505;-76
2022/09/20 04:55:23;;;;;;;15.02;13.50;;;;;;;22.91;59.98;100308.47;6153512;23;20036;-74
2022/09/20 04:58:32;;;;;;;17.45;12.50;;;;;;;22.89;60.37;100313.69;6155484;23;20036;-77
2022/09/20 05:01:15;;;;;;;11.88;10.80;;;;;;;22.77;61.08;100315.81;6153838;23;20024;-79
2022/09/20 05:04:00;;;;;;;18.70;13.10;;;;;;;22.62;61.52;100320.34;6154072;23;20495;-79
2022/09/20 05:06:45;;;;;;;13.18;12.05;;;;;;;22.41;62.34;100321.44;6153489;23;20026;-74
2022/09/20 05:09:31;;;;;;;14.25;12.80;;;;;;;22.39;62.61;100328.69;6155032;23;20026;-75
2022/09/20 05:12:34;;;;;;;14.82;12.27;;;;;;;22.26;62.88;100319.44;6128093;23;20021;-78
2022/09/20 05:15:09;;;;;;;20.60;13.45;;;;;;;22.22;63.12;100322.19;6153384;23;20479;-74
2022/09/20 05:18:03;;;;;;;13.52;12.10;;;;;;;22.20;63.61;100337.94;6154097;23;20469;-75
2022/09/20 05:20:58;;;;;;;15.98;12.45;;;;;;;22.14;63.99;100328.81;6154029;23;20026;-80
2022/09/20 05:24:03;;;;;;;25.08;14.05;;;;;;;22.13;64.02;100338.53;6155125;23;20040;-77
2022/09/20 05:26:37;;;;;;;16.25;12.05;;;;;;;22.14;64.21;100330.84;6155228;23;20032;-79
2022/09/20 05:29:08;;;;;;;14.23;11.98;;;;;;;22.15;64.22;100341.03;6155224;23;20028;-77
2022/09/20 05:32:13;;;;;;;14.02;12.70;;;;;;;22.13;64.21;100337.72;6153980;23;20116;-72
2022/09/20 05:35:01;;;;;;;13.75;12.38;;;;;;;22.09;64.33;100339.66;6151971;23;20288;-72
2022/09/20 05:37:36;;;;;;;13.90;12.55;;;;;;;22.13;64.09;100347.06;6153414;23;20029;-75
2022/09/20 05:40:20;;;;;;;15.18;13.85;;;;;;;22.11;64.17;100340.09;6150604;23;20033;-75
2022/09/20 05:43:10;;;;;;;14.90;13.50;;;;;;;22.10;64.07;100344.13;6151111;23;20426;-75
2022/09/20 05:45:51;;;;;;;15.63;13.73;;;;;;;22.07;64.19;100342.84;6152838;23;20022;-75
2022/09/20 05:48:21;;;;;;;16.33;13.57;;;;;;;22.14;64.21;100353.59;6127487;23;20059;-74
2022/09/20 05:51:12;;;;;;;17.90;14.02;;;;;;;22.27;63.37;100355.22;6154955;23;20022;-76
2022/09/20 05:53:48;;;;;;;16.05;13.40;;;;;;;22.38;63.06;100350.63;6152669;23;20017;-76
2022/09/20 05:56:33;;;;;;;17.13;13.45;;;;;;;22.24;63.71;100350.25;6154951;23;20029;-73
2022/09/20 05:59:12;;;;;;;15.20;13.48;;;;;;;22.29;63.80;100358.53;6153629;23;20025;-74
2022/09/20 06:02:02;;;;;;;13.13;11.82;;;;;;;22.03;64.14;100327.69;6153930;23;20028;-75
2022/09/20 06:04:39;;;;;;;13.93;12.32;;;;;;;22.08;64.07;100357.88;6138855;23;20084;-74
2022/09/20 06:07:18;;;;;;;16.70;12.65;;;;;;;22.09;63.88;100342.50;6152396;23;20036;-76
2022/09/20 06:10:14;;;;;;;14.23;12.95;;;;;;;22.08;64.01;100344.47;6126023;23;20032;-76
2022/09/20 06:13:07;;;;;;;15.30;13.82;;;;;;;22.29;63.60;100358.53;6148603;23;20024;-76
2022/09/20 06:15:45;;;;;;;18.52;12.38;;;;;;;22.30;63.04;100343.09;6152677;23;20025;-75
2022/09/20 06:18:16;;;;;;;14.30;13.10;;;;;;;22.34;63.37;100354.56;6153874;23;20025;-74
2022/09/20 06:20:59;;;;;;;18.02;15.68;;;;;;;22.29;63.48;100364.22;6153654;23;20441;-73
2022/09/20 06:23:26;;;;;;;14.68;13.15;;;;;;;22.16;63.21;100354.09;6127238;23;20452;-75
2022/09/20 06:26:01;;;;;;;17.25;14.57;;;;;;;22.23;62.75;100340.06;6149837;23;20491;-76
2022/09/20 06:28:40;;;;;;;15.88;14.32;;;;;;;22.41;62.63;100352.75;6152633;23;20022;-73
2022/09/20 06:31:09;;;;;;;14.77;13.50;;;;;;;22.44;62.77;100349.16;6127548;23;20031;-73
2022/09/20 06:33:49;;;;;;;15.63;13.07;;;;;;;22.45;62.57;100361.38;6154642;23;20030;-80
2022/09/20 06:42:09;;;;;;;23.17;13.70;;;;;;;22.63;62.07;100367.53;6148369;23;20029;-75
2022/09/20 06:44:41;;;;;;;17.35;15.77;;;;;;;22.68;62.14;100384.34;6150536;23;20033;-76
2022/09/20 06:47:13;;;;;;;17.73;15.40;;;;;;;22.72;62.42;100382.41;6149971;23;20026;-76
2022/09/20 06:49:45;;;;;;;20.17;15.35;;;;;;;22.64;62.08;100357.81;6149532;23;20037;-73
2022/09/20 06:52:14;;;;;;;18.25;16.55;;;;;;;22.86;62.37;100370.56;6151245;23;20029;-74
2022/09/20 06:54:45;;;;;;;15.60;14.02;;;;;;;22.90;61.85;100371.47;6125474;23;20021;-74
2022/09/20 06:57:39;;;;;;;17.80;15.23;;;;;;;22.96;62.16;100383.44;6152046;23;20536;-74
2022/09/20 07:00:09;;;;;;;19.17;17.58;;;;;;;22.99;61.76;100369.28;6140143;23;20022;-75
2022/09/20 07:02:36;;;;;;;17.30;14.32;;;;;;;23.08;61.76;100389.88;6153053;23;20021;-71
2022/09/20 07:05:06;;;;;;;17.38;14.57;;;;;;;23.12;61.71;100398.50;6124984;23;20510;-74
2022/09/20 07:07:33;;;;;;;22.77;16.15;;;;;;;23.07;61.90;100375.97;6152699;23;20036;-73
2022/09/20 07:10:00;;;;;;;16.70;15.30;;;;;;;23.30;61.91;100402.59;6153671;23;20029;-75
2022/09/20 07:12:28;;;;;;;16.95;15.35;;;;;;;23.18;61.16;100354.31;6154039;23;20026;-75
2022/09/20 07:14:54;;;;;;;18.05;16.45;;;;;;;23.53;61.32;100410.47;6153087;23;20021;-75
2022/09/20 07:17:21;;;;;;;16.65;14.73;;;;;;;23.62;61.47;100400.50;6153199;23;20021;-74
2022/09/20 07:19:48;;;;;;;18.08;15.48;;;;;;;23.73;60.69;100397.94;6127754;23;20025;-75
2022/09/20 07:22:15;;;;;;;16.33;14.40;;;;;;;23.74;60.50;100387.34;6152280;23;20021;-75
2022/09/20 07:24:43;;;;;;;16.52;14.43;;;;;;;23.91;60.47;100388.94;6153583;23;20026;-75
2022/09/20 07:27:11;;;;;;;18.73;14.02;;;;;;;24.08;60.44;100385.63;6153760;23;20033;-74
2022/09/20 07:29:39;;;;;;;19.63;14.88;;;;;;;24.21;59.64;100398.53;6154292;23;20352;-75
2022/09/20 07:32:07;;;;;;;22.38;20.58;;;;;;;24.38;59.75;100397.22;6152243;23;20029;-75
2022/09/20 07:34:34;;;;;;;18.88;14.70;;;;;;;24.61;59.17;100402.97;6147435;23;20040;-75
2022/09/20 07:37:01;;;;;;;21.95;14.88;;;;;;;24.67;58.90;100394.91;6125049;23;20408;-74
2022/09/20 07:39:28;;;;;;;24.73;17.75;;;;;;;24.87;58.77;100395.69;6151004;23;20022;-75
2022/09/20 07:41:55;;;;;;;18.50;17.02;;;;;;;25.08;58.60;100407.47;6092800;23;1390258;-74
2022/09/20 07:44:26;;;;;;;17.67;15.80;;;;;;;25.35;58.38;100414.06;6151779;23;20025;-75
2022/09/20 07:46:59;;;;;;;16.60;15.00;;;;;;;25.50;57.59;100397.94;6152752;23;20128;-73
2022/09/20 07:49:31;;;;;;;17.73;15.18;;;;;;;25.66;57.45;100410.03;6151070;23;20030;-73
2022/09/20 07:51:58;;;;;;;15.48;14.27;;;;;;;25.69;57.07;100394.13;6150252;23;20502;-74
2022/09/20 07:54:26;;;;;;;17.67;15.82;;;;;;;25.92;56.61;100396.94;6151647;23;20025;-75
2022/09/20 07:56:53;;;;;;;20.13;15.93;;;;;;;26.16;56.26;100410.72;6151255;23;20040;-74
2022/09/20 07:59:20;;;;;;;16.00;14.45;;;;;;;26.31;55.82;100410.88;6151783;23;20029;-74
2022/09/20 08:01:47;;;;;;;15.40;14.10;;;;;;;26.50;55.63;100409.91;6125033;23;20045;-74
2022/09/20 08:04:14;;;;;;;19.30;15.35;;;;;;;26.61;55.14;100403.06;6149762;23;20060;-73
2022/09/20 08:06:43;;;;;;;15.82;14.43;;;;;;;26.83;54.40;100388.94;6127322;23;20045;-75
2022/09/20 08:09:11;;;;;;;16.33;14.90;;;;;;;27.25;54.20;100410.63;6151391;23;20408;-74
2022/09/20 08:11:40;;;;;;;17.35;15.70;;;;;;;27.30;53.46;100384.44;6150674;23;20032;-74
2022/09/20 08:14:12;;;;;;;17.60;14.70;;;;;;;27.54;53.06;100371.50;6151592;23;20026;-75
2022/09/20 08:16:41;;;;;;;14.40;13.02;;;;;;;28.03;52.42;100410.28;6149685;23;20021;-74
2022/09/20 08:19:17;;;;;;;19.27;16.95;;;;;;;28.35;52.03;100404.69;6126676;23;20025;-75
2022/09/20 08:21:44;;;;;;;17.10;14.25;;;;;;;28.78;51.04;100411.34;6153816;23;20696;-74
2022/09/20 08:24:11;;;;;;;15.35;14.05;;;;;;;28.96;50.30;100394.16;6153095;23;20415;-75
2022/09/20 08:26:38;;;;;;;15.80;14.52;;;;;;;29.40;49.73;100406.47;6103287;23;20025;-74
2022/09/20 08:29:05;;;;;;;17.10;14.23;;;;;;;29.96;48.81;100414.19;6154291;23;20029;-74
2022/09/20 08:31:35;;;;;;;14.18;13.02;;;;;;;30.39;48.31;100401.66;6154235;23;20087;-74
2022/09/20 08:34:05;;;;;;;15.00;13.70;;;;;;;30.76;47.25;100401.03;6124420;23;20017;-74
2022/09/20 08:36:34;;;;;;;15.13;13.73;;;;;;;30.90;46.66;100418.22;6153384;23;20025;-73
2022/09/20 08:39:04;;;;;;;18.75;17.02;;;;;;;31.03;46.37;100421.44;6152869;23;20021;-74
2022/09/20 08:42:17;;;;;;;13.93;12.67;;;;;;;31.49;46.37;100428.06;6152577;23;20056;-74
2022/09/20 08:44:51;;;;;;;14.63;13.00;;;;;;;31.97;45.02;100430.06;6151309;23;20384;-75
2022/09/20 08:47:34;;;;;;;14.23;12.82;;;;;;;32.27;44.07;100406.97;6152967;23;20040;-74
2022/09/20 08:50:06;;;;;;;14.02;12.60;;;;;;;32.51;43.58;100390.59;6151548;23;20472;-75
2022/09/20 08:52:39;;;;;;;13.68;12.32;;;;;;;33.14;42.67;100421.84;6152198;23;20027;-74
2022/09/20 08:55:26;;;;;;;16.27;14.73;;;;;;;33.34;42.68;100421.91;6153051;23;20483;-75
2022/09/20 08:57:56;;;;;;;13.77;12.55;;;;;;;33.58;41.99;100419.84;6152445;23;20033;-74
2022/09/20 09:00:29;;;;;;;17.35;15.68;;;;;;;33.82;41.56;100428.50;6152087;23;20432;-75
2022/09/20 09:02:59;;;;;;;14.07;12.65;;;;;;;34.00;40.87;100429.00;6152361;23;20022;-76
2022/09/20 09:05:42;;;;;;;14.48;13.00;;;;;;;33.65;40.54;100427.59;6152503;23;20021;-73
2022/09/20 09:08:15;;;;;;;14.15;12.63;;;;;;;33.55;40.51;100417.03;6150973;23;20550;-74
2022/09/20 09:10:53;;;;;;;15.55;13.57;;;;;;;33.65;40.49;100418.91;6152168;23;20029;-74
2022/09/20 09:13:30;;;;;;;13.75;12.30;;;;;;;34.04;40.16;100444.22;6126858;23;20025;-74
2022/09/20 09:16:15;;;;;;;13.60;12.50;;;;;;;34.30;39.87;100425.06;6152101;23;20026;-74
2022/09/20 09:18:51;;;;;;;15.43;14.10;;;;;;;34.38;39.35;100419.91;6153647;23;20033;-75
2022/09/20 09:21:26;;;;;;;14.20;12.98;;;;;;;34.42;39.19;100423.53;6153886;23;20021;-76
2022/09/20 09:24:19;;;;;;;12.18;11.27;;;;;;;34.22;38.79;100414.84;6152119;23;20029;-74
2022/09/20 09:26:46;;;;;;;13.23;12.07;;;;;;;34.28;38.09;100427.56;6149367;23;20028;-75
2022/09/20 09:29:22;;;;;;;12.35;11.18;;;;;;;34.54;38.09;100428.69;6152720;23;20025;-75
2022/09/20 09:31:51;;;;;;;13.27;11.95;;;;;;;34.70;37.29;100412.56;6151718;23;20025;-75
2022/09/20 09:34:37;;;;;;;15.88;14.57;;;;;;;35.05;37.78;100426.25;6152510;23;20344;-74
2022/09/20 09:37:04;;;;;;;14.02;12.70;;;;;;;35.33;37.10;100439.22;6151560;23;20029;-75
2022/09/20 09:39:37;;;;;;;16.98;15.07;;;;;;;35.56;36.70;100435.34;6154387;23;20025;-74
2022/09/20 09:42:24;;;;;;;19.60;14.07;;;;;;;35.78;36.25;100446.38;6150848;23;20499;-74
2022/09/20 09:44:51;;;;;;;12.90;11.80;;;;;;;35.91;35.41;100441.44;6149285;23;20356;-75
2022/09/20 09:47:26;;;;;;;19.05;14.75;;;;;;;36.02;35.92;100427.44;6146765;23;20040;-75
2022/09/20 09:49:59;;;;;;;14.02;12.88;;;;;;;36.22;35.09;100435.19;6150229;23;20029;-75
2022/09/20 09:52:35;;;;;;;17.48;13.93;;;;;;;36.23;34.81;100431.00;6150638;23;20397;-75
2022/09/20 09:55:03;;;;;;;14.40;12.98;;;;;;;36.42;35.08;100430.00;6152453;23;20047;-74
2022/09/20 09:57:53;;;;;;;13.50;12.52;;;;;;;36.49;34.77;100447.25;6150626;23;20024;-75
2022/09/20 10:00:22;;;;;;;13.20;12.18;;;;;;;36.51;34.80;100426.41;6124145;23;20025;-75
2022/09/20 10:03:07;;;;;;;13.23;12.40;;;;;;;36.78;34.34;100449.25;6153845;23;20022;-75
2022/09/20 10:06:09;;;;;;;13.20;12.30;;;;;;;36.89;34.29;100437.28;6150412;23;20491;-75
2022/09/20 10:08:36;;;;;;;13.65;12.55;;;;;;;37.00;33.64;100456.06;6151839;23;20040;-76
2022/09/20 10:11:41;;;;;;;13.50;12.50;;;;;;;37.02;34.40;100443.13;6127266;23;20029;-75
2022/09/20 10:14:20;;;;;;;15.55;14.60;;;;;;;37.04;33.35;100426.03;6150685;23;20017;-75
2022/09/20 10:16:54;;;;;;;11.95;11.05;;;;;;;37.13;33.31;100449.41;6150083;23;20044;-75
2022/09/20 10:19:47;;;;;;;12.85;11.82;;;;;;;37.07;33.66;100431.72;6150609;23;20494;-75
2022/09/20 10:22:30;;;;;;;13.10;12.13;;;;;;;37.13;33.44;100429.03;6145181;23;20475;-76
2022/09/20 10:25:18;;;;;;;12.57;11.57;;;;;;;37.27;33.71;100440.22;6151838;23;20025;-74
2022/09/20 10:28:13;;;;;;;14.27;12.52;;;;;;;37.46;33.25;100435.41;6151048;23;20025;-75
2022/09/20 10:30:55;;;;;;;12.25;11.25;;;;;;;37.70;32.61;100430.78;6149520;23;20021;-74
2022/09/20 10:33:51;;;;;;;12.93;12.13;;;;;;;37.80;32.96;100437.53;6153247;23;20022;-75
2022/09/20 10:36:53;;;;;;;13.02;11.45;;;;;;;37.87;33.12;100418.97;6155933;23;20021;-76
2022/09/20 10:39:25;;;;;;;15.57;14.20;;;;;;;38.02;32.10;100442.59;6105933;23;20022;-76
2022/09/20 10:45:36;;;;;;;12.85;11.90;;;;;;;37.88;32.93;100430.16;6034798;23;20024;-76
2022/09/20 10:48:41;;;;;;;12.55;11.63;;;;;;;37.91;32.53;100414.66;6034788;23;20027;-75
2022/09/20 10:51:34;;;;;;;12.60;11.50;;;;;;;38.04;32.40;100419.59;6149567;23;20028;-75
2022/09/20 10:54:16;;;;;;;14.93;13.93;;;;;;;37.89;32.21;100425.94;6151971;23;20441;-76
2022/09/20 10:56:49;;;;;;;13.77;12.68;;;;;;;38.01;32.22;100411.81;6129205;23;20022;-76
2022/09/20 10:59:34;;;;;;;12.98;11.93;;;;;;;38.06;31.59;100414.13;6152217;23;20495;-75
2022/09/20 11:02:27;;;;;;;12.30;11.30;;;;;;;37.94;32.21;100412.88;6150629;23;20025;-76
2022/09/20 11:04:59;;;;;;;12.63;11.73;;;;;;;38.05;31.84;100432.88;6152007;23;20040;-76
2022/09/20 11:07:32;;;;;;;14.52;13.40;;;;;;;38.12;31.39;100426.78;6152703;23;20025;-76
2022/09/20 11:10:12;;;;;;;11.40;10.68;;;;;;;38.14;31.17;100395.06;6127186;23;20472;-76
2022/09/20 11:13:10;;;;;;;13.70;12.48;;;;;;;38.06;31.88;100388.69;6127291;23;20029;-76
2022/09/20 11:15:59;;;;;;;15.05;14.05;;;;;;;38.23;31.58;100403.88;6151280;23;20022;-76
2022/09/20 11:18:32;;;;;;;12.02;11.27;;;;;;;38.32;31.32;100398.09;6127745;23;20326;-76
2022/09/20 11:21:10;;;;;;;13.55;12.57;;;;;;;38.47;31.08;100394.66;6151675;23;20448;-76
2022/09/20 11:23:42;;;;;;;13.02;11.88;;;;;;;38.38;30.59;100410.00;6152192;23;20021;-78
2022/09/20 11:26:16;;;;;;;11.38;10.50;;;;;;;38.37;30.47;100388.75;6154057;23;20029;-75
2022/09/20 11:28:50;;;;;;;12.43;11.45;;;;;;;38.61;30.51;100391.16;6152730;23;20022;-76
2022/09/20 11:31:34;;;;;;;11.48;10.57;;;;;;;38.81;30.69;100374.09;6151071;23;20021;-76
2022/09/20 11:34:19;;;;;;;12.77;11.73;;;;;;;39.16;30.46;100385.53;6127006;23;20491;-75
2022/09/20 11:36:53;;;;;;;11.63;10.73;;;;;;;39.36;29.60;100387.25;6155272;23;20031;-76
2022/09/20 11:39:20;;;;;;;12.52;11.50;;;;;;;39.46;29.31;100406.41;6129029;23;20025;-75
2022/09/20 11:41:49;;;;;;;12.38;11.48;;;;;;;39.63;28.78;100372.66;6154170;23;20029;-75
2022/09/20 11:44:18;;;;;;;12.18;11.35;;;;;;;40.03;27.88;100383.38;6152796;23;20029;-76
2022/09/20 11:46:51;;;;;;;13.15;12.27;;;;;;;40.52;27.51;100387.38;6154122;23;20026;-76
2022/09/20 11:49:44;;;;;;;13.18;11.85;;;;;;;40.74;27.53;100391.69;6153363;23;20056;-75
2022/09/20 11:53:05;;;;;;;15.02;14.02;;;;;;;41.39;26.54;100391.34;6112651;23;20025;-76
2022/09/20 11:55:35;;;;;;;12.55;11.40;;;;;;;42.00;25.72;100376.41;6154049;23;20345;-75
2022/09/20 11:58:08;;;;;;;12.07;11.07;;;;;;;42.28;25.14;100366.03;6152366;23;20187;-76
2022/09/20 12:00:40;;;;;;;11.80;10.88;;;;;;;42.54;24.46;100366.22;6152253;23;20033;-76
2022/09/20 12:03:31;;;;;;;12.13;11.20;;;;;;;42.88;24.40;100366.78;6152807;23;20021;-75
2022/09/20 12:06:25;;;;;;;11.02;10.23;;;;;;;43.27;24.10;100367.38;6154588;23;20342;-77
2022/09/20 12:08:52;;;;;;;14.38;13.45;;;;;;;43.40;23.74;100360.34;6151911;23;20495;-76
2022/09/20 12:11:34;;;;;;;12.13;11.00;;;;;;;43.76;23.46;100338.31;6154230;23;20338;-76
2022/09/20 12:14:16;;;;;;;14.30;13.30;;;;;;;44.07;22.77;100354.47;6154524;23;20021;-76
2022/09/20 12:16:45;;;;;;;14.43;13.13;;;;;;;44.46;23.00;100369.59;6151832;23;20022;-77
2022/09/20 12:19:31;;;;;;;12.10;11.27;;;;;;;44.91;22.46;100358.19;6153403;23;20101;-76